Time;durP1;ratioP1;P1;durP2;ratioP2;P2;SDS_P1;SDS_P2;PMS_P1;PMS_P2;Temp;Humidity;BMP_temperature;BMP_pressure;BME280_temperature;BME280_humidity;BME280_pressure;Samples;Min_cycle;Max_cycle;Signal;HPM_P1;HPM_P2
2021/12/11 00:00:59;;;;;;;3.83;1.65;;;;;;;6.51;97.30;98855.03;4988314;28;20061;-63
2021/12/11 00:03:32;;;;;;;2.63;1.40;;;;;;;6.48;97.94;98854.28;4988498;28;20026;-63
2021/12/11 00:06:24;;;;;;;4.13;1.50;;;;;;;6.46;97.91;98869.31;4980938;28;20088;-63
2021/12/11 00:08:53;;;;;;;5.05;1.42;;;;;;;6.45;97.92;98862.31;4984086;28;20054;-63
2021/12/11 00:11:33;;;;;;;1.85;1.30;;;;;;;6.45;99.04;98878.16;4989742;28;20022;-63
2021/12/11 00:14:02;;;;;;;3.55;1.70;;;;;;;6.46;99.11;98874.59;4986120;28;20058;-63
2021/12/11 00:16:31;;;;;;;1.98;1.27;;;;;;;6.45;99.01;98883.44;4974461;28;20403;-63
2021/12/11 00:19:07;;;;;;;3.42;1.40;;;;;;;6.44;99.00;98887.00;4969272;28;20022;-63
2021/12/11 00:21:33;;;;;;;4.65;1.60;;;;;;;6.41;99.24;98887.09;4970726;28;20033;-63
2021/12/11 00:24:10;;;;;;;2.78;1.27;;;;;;;6.41;99.52;98884.44;4976976;28;20045;-63
2021/12/11 00:26:53;;;;;;;3.25;1.40;;;;;;;6.40;99.45;98891.53;4991453;28;20022;-63
2021/12/11 00:29:24;;;;;;;1.33;1.20;;;;;;;6.43;99.42;98898.47;4970261;28;20679;-63
2021/12/11 00:31:54;;;;;;;1.83;1.63;;;;;;;6.42;99.89;98894.13;4983472;28;20344;-63
2021/12/11 00:34:21;;;;;;;2.65;1.67;;;;;;;6.44;100.00;98902.84;4980848;28;20054;-63
2021/12/11 00:37:01;;;;;;;2.45;1.35;;;;;;;6.35;100.00;98913.72;4976279;28;20035;-63
2021/12/11 00:39:27;;;;;;;1.42;1.23;;;;;;;6.26;100.00;98904.31;4982797;28;20050;-63
2021/12/11 00:41:55;;;;;;;2.55;1.33;;;;;;;6.24;100.00;98906.13;4975871;28;20408;-63
2021/12/11 00:44:43;;;;;;;2.17;1.60;;;;;;;6.33;100.00;98920.81;4978042;28;20397;-63
2021/12/11 00:47:21;;;;;;;2.22;1.55;;;;;;;6.33;100.00;98920.81;4989134;28;20022;-63
2021/12/11 00:49:54;;;;;;;2.85;1.67;;;;;;;6.34;100.00;98927.84;4990624;28;20065;-63
2021/12/11 00:52:36;;;;;;;2.67;1.67;;;;;;;6.34;100.00;98933.97;4995642;28;20116;-63
2021/12/11 00:55:18;;;;;;;2.72;1.65;;;;;;;6.33;100.00;98941.94;4978284;28;20034;-63
2021/12/11 00:57:45;;;;;;;2.55;1.40;;;;;;;6.26;100.00;98957.13;4979520;28;20031;-63
2021/12/11 01:00:19;;;;;;;3.25;1.20;;;;;;;6.29;100.00;98961.44;4974852;28;20035;-63
2021/12/11 01:02:45;;;;;;;2.25;1.63;;;;;;;6.32;100.00;98970.16;4975917;28;20769;-63
2021/12/11 01:05:11;;;;;;;3.75;1.42;;;;;;;6.28;100.00;98971.16;4980352;28;20066;-63
2021/12/11 01:07:37;;;;;;;1.70;1.60;;;;;;;6.29;100.00;98972.03;4994679;28;20405;-63
2021/12/11 01:10:26;;;;;;;3.40;1.90;;;;;;;6.30;100.00;98979.88;4988001;28;20100;-63
2021/12/11 01:13:02;;;;;;;3.15;1.75;;;;;;;6.19;100.00;98976.72;4993289;28;20045;-63
2021/12/11 01:15:36;;;;;;;2.88;1.60;;;;;;;6.22;100.00;98994.25;4994182;28;20122;-63
2021/12/11 01:20:53;;;;;;;3.47;1.40;;;;;;;6.22;100.00;99007.44;4974615;28;20483;-63
2021/12/11 01:23:45;;;;;;;3.22;2.00;;;;;;;6.21;100.00;99016.28;4975394;28;20035;-63
2021/12/11 01:26:20;;;;;;;3.47;1.60;;;;;;;6.19;100.00;99020.75;4980096;28;20113;-63
2021/12/11 01:28:47;;;;;;;2.58;1.45;;;;;;;6.21;100.00;99032.13;4989319;28;20027;-63
2021/12/11 01:31:15;;;;;;;3.75;1.50;;;;;;;6.23;100.00;99046.13;4974662;28;20027;-63
2021/12/11 01:33:42;;;;;;;2.75;1.40;;;;;;;6.29;100.00;99067.91;4982307;28;20366;-63
2021/12/11 01:36:08;;;;;;;4.95;3.65;;;;;;;6.31;100.00;99078.47;4985959;28;20026;-63
2021/12/11 01:38:35;;;;;;;1.75;1.48;;;;;;;6.27;100.00;99079.47;4992764;28;20042;-63
2021/12/11 01:41:05;;;;;;;5.53;1.98;;;;;;;6.16;100.00;99078.91;4983528;28;20026;-63
2021/12/11 01:43:34;;;;;;;2.45;1.40;;;;;;;6.11;100.00;99094.03;4993148;28;20026;-63
2021/12/11 01:46:06;;;;;;;1.40;1.27;;;;;;;6.02;100.00;99105.72;4993509;28;20033;-63
2021/12/11 01:48:35;;;;;;;3.45;1.63;;;;;;;5.93;100.00;99111.25;4993277;28;20482;-63
2021/12/11 01:51:09;;;;;;;2.42;1.60;;;;;;;5.88;100.00;99123.69;4991569;28;20030;-62
2021/12/11 01:53:39;;;;;;;3.72;1.77;;;;;;;5.78;100.00;99118.72;4973869;28;20047;-63
2021/12/11 01:56:12;;;;;;;2.75;1.60;;;;;;;5.82;100.00;99130.88;4980768;28;20367;-63
2021/12/11 01:58:45;;;;;;;1.08;0.98;;;;;;;5.73;100.00;99132.03;4993469;28;20028;-63
2021/12/11 02:01:19;;;;;;;2.30;1.63;;;;;;;5.72;100.00;99137.31;4987183;28;20029;-63
2021/12/11 02:03:48;;;;;;;4.00;1.50;;;;;;;5.71;100.00;99146.16;4979071;28;20070;-63
2021/12/11 02:06:13;;;;;;;2.97;1.20;;;;;;;5.50;100.00;99136.19;4973301;28;20023;-63
2021/12/11 02:08:41;;;;;;;2.92;1.48;;;;;;;5.59;100.00;99157.03;4973424;28;20089;-63
2021/12/11 02:11:13;;;;;;;2.08;1.58;;;;;;;5.58;100.00;99160.59;4978672;28;20391;-63
2021/12/11 02:13:50;;;;;;;1.42;1.33;;;;;;;5.53;100.00;99168.63;4995876;28;20050;-64
2021/12/11 02:16:22;;;;;;;4.82;1.55;;;;;;;5.56;100.00;99181.72;4986464;28;20453;-63
2021/12/11 02:18:59;;;;;;;4.22;1.95;;;;;;;5.48;100.00;99174.91;4977151;28;20031;-63
2021/12/11 02:21:32;;;;;;;3.50;1.80;;;;;;;5.46;100.00;99187.25;4974096;28;20128;-64
2021/12/11 02:24:05;;;;;;;2.00;1.80;;;;;;;5.44;100.00;99199.66;4986622;28;20503;-63
2021/12/11 02:26:34;;;;;;;3.63;2.10;;;;;;;5.43;100.00;99193.50;4973001;28;20029;-64
2021/12/11 02:29:08;;;;;;;3.20;2.20;;;;;;;5.45;100.00;99204.00;4979588;28;20065;-64
2021/12/11 02:32:04;;;;;;;7.88;3.40;;;;;;;5.36;100.00;99211.25;4995503;28;20027;-64
2021/12/11 02:34:43;;;;;;;5.00;2.53;;;;;;;5.17;100.00;99204.66;4983734;28;20031;-63
2021/12/11 02:37:37;;;;;;;4.53;3.35;;;;;;;5.24;100.00;99219.44;4989168;28;20449;-64
2021/12/11 02:40:19;;;;;;;5.88;3.35;;;;;;;5.28;100.00;99234.28;4987335;28;20026;-63
2021/12/11 02:42:54;;;;;;;6.75;3.55;;;;;;;5.22;100.00;99234.41;4983834;28;20115;-64
2021/12/11 02:45:35;;;;;;;7.20;4.53;;;;;;;5.22;100.00;99239.69;4991718;28;20034;-63
2021/12/11 02:48:17;;;;;;;6.32;5.28;;;;;;;5.22;100.00;99247.59;4987149;28;20038;-63
2021/12/11 02:50:59;;;;;;;7.18;5.43;;;;;;;5.26;100.00;99251.03;4986348;28;20066;-63
2021/12/11 02:53:30;;;;;;;6.43;3.67;;;;;;;5.21;100.00;99256.41;4991294;28;20159;-63
2021/12/11 02:56:07;;;;;;;7.03;4.75;;;;;;;5.22;100.00;99268.69;4982705;28;20066;-63
2021/12/11 02:58:36;;;;;;;5.50;2.60;;;;;;;5.08;100.00;99268.16;4991253;28;20030;-63
2021/12/11 03:01:24;;;;;;;6.53;4.70;;;;;;;5.00;100.00;99259.56;4992805;28;20389;-63
2021/12/11 03:03:59;;;;;;;11.55;7.55;;;;;;;5.04;100.00;99289.34;4979306;28;20030;-63
2021/12/11 03:06:27;;;;;;;9.38;7.55;;;;;;;5.10;100.00;99290.06;4972366;28;20050;-63
2021/12/11 03:08:58;;;;;;;7.03;4.90;;;;;;;5.07;100.00;99295.38;4977420;28;20110;-63
2021/12/11 03:11:27;;;;;;;11.25;6.47;;;;;;;5.06;100.00;99304.22;4994071;28;20014;-63
2021/12/11 03:13:55;;;;;;;10.30;7.75;;;;;;;5.08;100.00;99307.69;4987454;28;20053;-63
2021/12/11 03:16:24;;;;;;;17.33;15.45;;;;;;;5.09;100.00;99309.41;4984704;28;20064;-63
2021/12/11 03:18:51;;;;;;;15.15;10.85;;;;;;;4.96;100.00;99300.03;4991273;28;20031;-63
2021/12/11 03:21:17;;;;;;;19.20;17.17;;;;;;;5.07;100.00;99316.47;4981616;28;20036;-63
2021/12/11 03:23:42;;;;;;;11.32;10.13;;;;;;;5.00;100.00;99324.56;4982341;28;20026;-63
2021/12/11 03:26:08;;;;;;;12.82;10.07;;;;;;;4.96;100.00;99334.28;4990209;28;20081;-63
2021/12/11 03:28:34;;;;;;;11.43;7.82;;;;;;;5.01;100.00;99336.81;4992525;28;20439;-63
2021/12/11 03:31:02;;;;;;;11.55;8.38;;;;;;;5.04;100.00;99348.16;4991283;28;20434;-64
2021/12/11 03:33:32;;;;;;;13.85;10.77;;;;;;;5.07;100.00;99347.25;4978294;28;20075;-63
2021/12/11 03:35:58;;;;;;;11.75;7.25;;;;;;;4.96;100.00;99351.84;4972248;28;20089;-63
2021/12/11 03:38:25;;;;;;;14.45;11.20;;;;;;;5.03;100.00;99359.63;4978277;28;20035;-63
2021/12/11 03:40:52;;;;;;;11.10;9.00;;;;;;;5.06;100.00;99370.09;4990574;28;20030;-63
2021/12/11 03:43:20;;;;;;;7.32;5.13;;;;;;;5.06;100.00;99371.84;4989652;28;20061;-63
2021/12/11 03:45:49;;;;;;;8.23;5.80;;;;;;;5.03;100.00;99372.81;4989753;28;20018;-63
2021/12/11 03:48:19;;;;;;;9.32;5.88;;;;;;;5.03;100.00;99372.81;4991371;28;20526;-64
2021/12/11 03:50:46;;;;;;;8.88;6.45;;;;;;;5.01;100.00;99376.34;4981977;28;20109;-63
2021/12/11 03:53:13;;;;;;;7.93;5.93;;;;;;;4.98;100.00;99379.94;4974948;28;20026;-64
2021/12/11 03:55:47;;;;;;;10.35;5.32;;;;;;;4.95;100.00;99385.28;4974314;28;20558;-64
2021/12/11 03:58:13;;;;;;;10.18;5.78;;;;;;;4.96;100.00;99400.16;4984866;28;20505;-64
2021/12/11 04:00:49;;;;;;;8.85;5.00;;;;;;;4.97;100.00;99398.41;4991037;28;20034;-64
2021/12/11 04:03:17;;;;;;;9.15;5.50;;;;;;;5.00;100.00;99403.63;4981705;28;20023;-64
2021/12/11 04:05:45;;;;;;;7.60;4.70;;;;;;;5.01;100.00;99406.22;4990676;28;20505;-64
2021/12/11 04:08:14;;;;;;;9.50;4.95;;;;;;;4.94;100.00;99406.38;4984598;28;20398;-64
2021/12/11 04:10:40;;;;;;;8.50;5.55;;;;;;;4.97;100.00;99415.09;4975796;28;20030;-64
2021/12/11 04:13:08;;;;;;;8.45;5.13;;;;;;;4.97;100.00;99420.38;4990977;28;20590;-64
2021/12/11 04:15:34;;;;;;;8.00;4.85;;;;;;;4.96;100.00;99428.28;4990173;28;20109;-63
2021/12/11 04:18:00;;;;;;;10.30;4.93;;;;;;;4.93;100.00;99442.41;4981923;28;20560;-64
2021/12/11 04:20:28;;;;;;;8.68;5.43;;;;;;;4.91;100.00;99446.81;5010420;28;20033;-64
2021/12/11 04:22:54;;;;;;;8.75;5.20;;;;;;;4.94;100.00;99444.13;5000037;28;20466;-64
2021/12/11 04:25:24;;;;;;;8.32;5.03;;;;;;;4.92;100.00;99445.94;4984775;28;20398;-64
2021/12/11 04:27:50;;;;;;;12.43;5.85;;;;;;;4.89;100.00;99453.88;4990236;28;20081;-64
2021/12/11 04:30:18;;;;;;;8.13;5.10;;;;;;;4.91;100.00;99462.63;4994160;28;20033;-64
2021/12/11 04:32:46;;;;;;;9.38;5.50;;;;;;;4.96;100.00;99463.41;4982963;28;20019;-63
2021/12/11 04:35:13;;;;;;;9.93;5.40;;;;;;;4.91;100.00;99475.81;4989414;28;20049;-64
2021/12/11 04:37:39;;;;;;;8.98;5.60;;;;;;;4.93;100.00;99476.66;4986937;28;20097;-64
2021/12/11 04:40:10;;;;;;;11.23;5.28;;;;;;;4.90;100.00;99481.97;4982997;28;20022;-64
2021/12/11 04:42:57;;;;;;;9.02;4.97;;;;;;;4.93;100.00;99487.19;4970760;28;20070;-64
2021/12/11 04:45:39;;;;;;;12.30;6.43;;;;;;;4.91;100.00;99481.06;4978566;28;20109;-64
2021/12/11 04:56:47;;;;;;;11.90;6.03;;;;;;;4.94;100.00;99514.41;4984634;28;20039;-64
2021/12/11 05:02:02;;;;;;;9.82;5.93;;;;;;;4.94;100.00;99520.53;4971252;28;20018;-64
2021/12/11 05:07:26;;;;;;;17.65;5.97;;;;;;;4.89;100.00;99532.09;4985857;28;20041;-64
2021/12/11 05:10:01;;;;;;;9.52;4.47;;;;;;;4.90;100.00;99539.94;4990241;28;20026;-64
2021/12/11 05:12:35;;;;;;;10.65;5.88;;;;;;;4.94;100.00;99541.63;4987961;28;20061;-64
2021/12/11 05:15:03;;;;;;;;;;;;;;;4.93;100.00;99545.16;4991311;28;20047;-64
2021/12/11 05:17:28;;;;;;;17.38;6.07;;;;;;;4.93;100.00;99541.66;4988150;28;19923;-64
2021/12/11 05:19:53;;;;;;;28.92;8.10;;;;;;;4.89;100.00;99554.00;4998009;28;20031;-64
2021/12/11 05:22:19;;;;;;;23.15;6.65;;;;;;;4.92;100.00;99553.97;4994981;28;20034;-64
2021/12/11 05:24:50;;;;;;;11.88;5.32;;;;;;;5.00;100.00;99569.63;4992678;28;20031;-64
2021/12/11 05:27:15;;;;;;;11.63;6.13;;;;;;;4.99;100.00;99571.41;4980449;28;20042;-63
2021/12/11 05:29:41;;;;;;;15.82;7.07;;;;;;;5.01;100.00;99574.88;4974473;28;20466;-64
2021/12/11 05:32:09;;;;;;;10.18;5.53;;;;;;;5.03;100.00;99578.38;4981392;28;20026;-64
2021/12/11 05:34:35;;;;;;;10.63;5.93;;;;;;;4.96;100.00;99576.72;4974579;28;20048;-64
2021/12/11 05:37:01;;;;;;;13.73;6.63;;;;;;;5.03;100.00;99599.44;4977245;28;20101;-64
2021/12/11 05:39:26;;;;;;;10.73;5.88;;;;;;;4.98;100.00;99585.47;4993576;28;20068;-64
2021/12/11 05:41:53;;;;;;;11.80;5.97;;;;;;;5.05;100.00;99597.66;4991054;28;20368;-64
2021/12/11 05:44:22;;;;;;;11.90;6.55;;;;;;;5.04;100.00;99600.34;4993174;28;20061;-64
2021/12/11 05:46:48;;;;;;;11.98;6.68;;;;;;;4.97;100.00;99602.22;4984328;28;20110;-64
2021/12/11 05:49:15;;;;;;;12.95;6.13;;;;;;;5.02;100.00;99610.91;4977835;28;20105;-64
2021/12/11 05:51:43;;;;;;;13.65;6.25;;;;;;;5.05;100.00;99616.13;4976331;28;20033;-64
2021/12/11 05:54:15;;;;;;;21.83;6.35;;;;;;;5.10;100.00;99613.41;4986085;28;20026;-64
2021/12/11 05:56:42;;;;;;;13.27;7.30;;;;;;;5.13;100.00;99624.75;4993577;28;20360;-64
2021/12/11 05:59:11;;;;;;;11.32;6.35;;;;;;;5.09;100.00;99624.84;4990825;28;20034;-64
2021/12/11 06:01:46;;;;;;;8.90;5.85;;;;;;;5.16;100.00;99640.53;4976653;28;20479;-64
2021/12/11 06:04:21;;;;;;;12.70;6.25;;;;;;;5.12;100.00;99643.25;4993346;28;20033;-64
2021/12/11 06:06:47;;;;;;;13.05;7.03;;;;;;;5.15;100.00;99654.59;4993539;28;20026;-64
2021/12/11 06:09:20;;;;;;;12.65;6.55;;;;;;;5.17;100.00;99654.56;4994159;28;20030;-64
2021/12/11 06:11:50;;;;;;;11.23;6.15;;;;;;;5.14;100.00;99663.41;4992539;28;20041;-64
2021/12/11 06:14:17;;;;;;;11.73;7.10;;;;;;;5.08;100.00;99665.25;4992789;28;20050;-64
2021/12/11 06:16:48;;;;;;;11.40;5.72;;;;;;;5.13;100.00;99676.59;4989205;28;20118;-64
2021/12/11 06:19:19;;;;;;;14.48;6.85;;;;;;;5.12;100.00;99681.00;4992712;28;20030;-64
2021/12/11 06:21:44;;;;;;;11.95;5.88;;;;;;;4.98;100.00;99680.34;4989627;28;20030;-63
2021/12/11 06:24:10;;;;;;;13.70;7.05;;;;;;;5.04;100.00;99682.03;4982020;28;20508;-64
2021/12/11 06:26:36;;;;;;;12.40;6.38;;;;;;;5.08;100.00;99681.94;4987265;28;20471;-64
2021/12/11 06:29:02;;;;;;;13.82;7.03;;;;;;;5.09;100.00;99698.66;4991959;28;20033;-63
2021/12/11 06:31:28;;;;;;;12.32;6.43;;;;;;;5.06;100.00;99696.91;4993476;28;20057;-64
2021/12/11 06:33:54;;;;;;;15.10;7.00;;;;;;;5.12;100.00;99707.34;4985075;28;20070;-64
2021/12/11 06:36:21;;;;;;;14.68;7.50;;;;;;;5.18;100.00;99709.91;4993722;28;20114;-63
2021/12/11 06:38:51;;;;;;;12.32;6.95;;;;;;;5.23;100.00;99723.00;4988694;28;20050;-64
2021/12/11 06:41:21;;;;;;;11.48;7.22;;;;;;;5.24;100.00;99720.34;5000356;28;20440;-64
2021/12/11 06:43:46;;;;;;;13.57;6.65;;;;;;;5.23;100.00;99723.00;5012198;28;20029;-64
2021/12/11 06:46:12;;;;;;;11.10;6.32;;;;;;;5.18;100.00;99727.50;5004970;28;20030;-64
2021/12/11 06:48:38;;;;;;;19.88;7.25;;;;;;;5.24;100.00;99740.56;4992235;28;20026;-64
2021/12/11 06:51:05;;;;;;;11.35;6.10;;;;;;;5.26;100.00;99744.06;4992621;28;20037;-65
2021/12/11 06:53:40;;;;;;;14.40;7.53;;;;;;;5.20;100.00;99744.16;4993699;28;20038;-64
2021/12/11 06:56:07;;;;;;;13.43;7.28;;;;;;;5.15;100.00;99752.16;4986179;28;20038;-64
2021/12/11 06:58:34;;;;;;;13.73;6.78;;;;;;;5.20;100.00;99754.69;4990032;28;20022;-64
2021/12/11 07:01:00;;;;;;;18.77;7.07;;;;;;;5.27;100.00;99757.22;4987601;28;20038;-64
2021/12/11 07:03:26;;;;;;;10.73;6.25;;;;;;;5.26;100.00;99768.66;4986565;28;20387;-64
2021/12/11 07:05:52;;;;;;;12.25;7.90;;;;;;;5.21;100.00;99786.31;4991782;28;20088;-64
2021/12/11 07:08:18;;;;;;;15.27;6.82;;;;;;;5.27;100.00;99783.56;4992930;28;20030;-64
2021/12/11 07:10:45;;;;;;;13.13;7.43;;;;;;;5.24;100.00;99799.44;4995763;28;20030;-65
2021/12/11 07:13:12;;;;;;;13.18;7.20;;;;;;;5.23;100.00;99805.63;4978011;28;20034;-64
2021/12/11 07:15:37;;;;;;;13.93;7.25;;;;;;;5.24;100.00;99810.00;4974378;28;20046;-64
2021/12/11 07:18:03;;;;;;;12.30;7.50;;;;;;;5.27;100.00;99820.50;4985500;28;20026;-64
2021/12/11 07:20:30;;;;;;;13.57;7.50;;;;;;;5.26;100.00;99829.31;4972251;28;20054;-64
2021/12/11 07:22:55;;;;;;;13.63;6.38;;;;;;;5.17;100.00;99816.25;4976955;28;20109;-64
2021/12/11 07:25:31;;;;;;;13.88;7.10;;;;;;;5.21;100.00;99830.25;4989839;28;20586;-64
2021/12/11 07:28:01;;;;;;;13.50;7.50;;;;;;;5.22;100.00;99834.66;4980628;28;20064;-64
2021/12/11 07:30:26;;;;;;;12.82;6.30;;;;;;;5.18;100.00;99844.38;4973075;28;20116;-64
2021/12/11 07:32:54;;;;;;;12.35;6.32;;;;;;;5.21;100.00;99852.22;4978492;28;20472;-64
2021/12/11 07:35:19;;;;;;;13.15;6.60;;;;;;;5.24;100.00;99852.19;4971822;28;20494;-64
2021/12/11 07:37:49;;;;;;;12.32;7.43;;;;;;;5.28;100.00;99866.19;4982663;28;20022;-64
2021/12/11 07:40:16;;;;;;;12.77;6.65;;;;;;;5.30;100.00;99872.31;4973589;28;20483;-64
2021/12/11 07:42:41;;;;;;;12.35;6.55;;;;;;;5.31;100.00;99884.59;4973960;28;20023;-64
2021/12/11 07:45:07;;;;;;;11.60;6.63;;;;;;;5.31;100.00;99884.59;4977058;28;20430;-64
2021/12/11 07:47:33;;;;;;;14.60;7.43;;;;;;;5.30;100.00;99891.63;4975309;28;20031;-64
2021/12/11 07:49:58;;;;;;;14.20;7.57;;;;;;;5.30;100.00;99890.78;4981004;28;20033;-64
2021/12/11 07:52:24;;;;;;;14.90;7.68;;;;;;;5.30;100.00;99896.91;4991417;28;20068;-64
2021/12/11 07:54:49;;;;;;;15.48;7.32;;;;;;;5.34;100.00;99913.56;4991081;28;20039;-64
2021/12/11 07:57:15;;;;;;;15.93;7.13;;;;;;;5.36;100.00;99912.66;4991850;28;20034;-64
2021/12/11 07:59:41;;;;;;;13.95;7.65;;;;;;;5.38;100.00;99928.47;4978773;28;20803;-64
2021/12/11 08:02:06;;;;;;;15.75;8.25;;;;;;;5.43;100.00;99920.50;4971906;28;20105;-64
2021/12/11 08:04:32;;;;;;;12.40;6.68;;;;;;;5.42;100.00;99919.59;4974219;28;20478;-64
2021/12/11 08:06:58;;;;;;;14.02;7.13;;;;;;;5.52;100.00;99928.28;4991475;28;20474;-64
2021/12/11 08:09:24;;;;;;;14.63;6.70;;;;;;;5.51;100.00;99932.69;4991043;28;20077;-64
2021/12/11 08:11:51;;;;;;;13.75;7.85;;;;;;;5.58;100.00;99941.38;4990586;28;20030;-64
2021/12/11 08:14:18;;;;;;;14.77;7.93;;;;;;;5.56;100.00;99938.78;4985138;28;20046;-64
2021/12/11 08:16:46;;;;;;;17.33;8.35;;;;;;;5.60;100.00;99950.16;4990671;28;20023;-64
2021/12/11 08:19:15;;;;;;;14.45;7.03;;;;;;;5.56;100.00;99959.00;4991671;28;20014;-64
2021/12/11 08:21:41;;;;;;;17.40;7.93;;;;;;;5.51;100.00;99961.69;4991878;28;20066;-64
2021/12/11 08:24:07;;;;;;;15.43;8.10;;;;;;;5.49;100.00;99963.47;4991393;28;20105;-64
2021/12/11 08:26:35;;;;;;;12.77;7.55;;;;;;;5.43;100.00;99962.69;4981958;28;20093;-64
2021/12/11 08:29:01;;;;;;;14.90;7.68;;;;;;;5.46;100.00;99973.19;4991418;28;20030;-64
2021/12/11 08:31:27;;;;;;;14.27;6.97;;;;;;;5.48;100.00;99966.13;4982024;28;20378;-64
2021/12/11 08:33:54;;;;;;;15.73;7.20;;;;;;;5.50;100.00;99973.16;4975544;28;20030;-64
2021/12/11 08:36:21;;;;;;;16.95;7.10;;;;;;;5.47;100.00;99969.69;4971245;28;20394;-64
2021/12/11 08:38:47;;;;;;;13.10;7.28;;;;;;;5.50;100.00;99982.81;4983683;28;20462;-64
2021/12/11 08:41:17;;;;;;;13.82;7.30;;;;;;;5.53;100.00;99988.06;4981748;28;20018;-64
2021/12/11 08:43:46;;;;;;;11.95;6.80;;;;;;;5.59;100.00;99990.59;4991670;28;20455;-64
2021/12/11 08:46:23;;;;;;;14.90;8.02;;;;;;;5.69;100.00;100005.41;4987030;28;20018;-65
2021/12/11 08:48:49;;;;;;;12.88;7.38;;;;;;;5.93;100.00;100000.72;4987618;28;20045;-64
2021/12/11 08:51:31;;;;;;;17.02;7.75;;;;;;;6.14;100.00;100012.75;4989127;28;20052;-64
2021/12/11 08:53:56;;;;;;;16.35;8.32;;;;;;;6.29;100.00;100015.16;4994246;28;20022;-64
2021/12/11 08:56:24;;;;;;;16.08;8.32;;;;;;;6.28;100.00;100016.91;4994084;28;20042;-64
2021/12/11 08:58:50;;;;;;;15.40;8.05;;;;;;;6.46;100.00;100015.75;4984916;28;20137;-64
2021/12/11 09:01:30;;;;;;;15.90;7.35;;;;;;;6.44;99.88;100023.69;4979370;28;20442;-65
2021/12/11 09:04:28;;;;;;;15.88;6.93;;;;;;;6.43;98.38;100029.00;4979200;28;20042;-64
2021/12/11 09:07:02;;;;;;;13.35;7.00;;;;;;;6.34;98.08;100032.66;5005416;28;20105;-64
2021/12/11 09:09:43;;;;;;;12.80;7.18;;;;;;;6.18;97.84;100047.00;4999507;28;20112;-64
2021/12/11 09:12:24;;;;;;;14.73;7.32;;;;;;;6.16;98.33;100051.41;4995967;28;20029;-64
2021/12/11 09:14:56;;;;;;;13.70;8.18;;;;;;;6.15;98.68;100057.59;4993917;28;20054;-64
2021/12/11 09:17:39;;;;;;;12.05;7.05;;;;;;;6.14;99.10;100060.28;4987619;28;20093;-64
2021/12/11 09:20:09;;;;;;;12.85;7.47;;;;;;;6.21;98.81;100069.88;4985526;28;20031;-64
2021/12/11 09:22:43;;;;;;;13.45;8.48;;;;;;;6.25;98.59;100080.34;4991859;28;20065;-64
2021/12/11 09:25:11;;;;;;;14.82;7.53;;;;;;;6.64;100.00;100077.09;4991722;28;20035;-64
2021/12/11 09:27:43;;;;;;;16.95;8.27;;;;;;;7.77;100.00;100084.75;4991613;28;20479;-64
2021/12/11 09:30:20;;;;;;;16.45;8.32;;;;;;;9.16;92.90;100077.09;4989822;28;20481;-64
2021/12/11 09:32:54;;;;;;;12.95;6.38;;;;;;;11.10;76.22;100081.00;4994558;28;20422;-64
2021/12/11 09:35:21;;;;;;;14.68;6.95;;;;;;;13.08;69.55;100085.91;4993542;28;20467;-64
2021/12/11 09:37:51;;;;;;;11.27;5.80;;;;;;;14.44;59.75;100097.66;4984392;28;20030;-64
2021/12/11 09:40:39;;;;;;;8.95;4.80;;;;;;;15.10;53.47;100098.88;4991762;28;20037;-64
2021/12/11 09:43:04;;;;;;;9.60;5.28;;;;;;;15.56;51.49;100103.69;4993477;28;20057;-64
2021/12/11 09:45:39;;;;;;;8.65;5.50;;;;;;;16.36;50.20;100106.56;4990579;28;20085;-64
2021/12/11 09:48:15;;;;;;;9.00;5.15;;;;;;;16.06;47.98;100116.25;4990781;28;20457;-64
2021/12/11 09:50:51;;;;;;;7.25;4.60;;;;;;;16.93;47.91;100108.72;4987313;28;20022;-64
2021/12/11 09:53:19;;;;;;;5.85;3.90;;;;;;;16.78;45.70;100117.66;4993667;28;20363;-65
2021/12/11 09:55:46;;;;;;;7.95;5.00;;;;;;;16.87;46.79;100123.34;4993781;28;20034;-65
2021/12/11 09:58:18;;;;;;;8.18;5.55;;;;;;;16.85;46.04;100122.56;4993668;28;20109;-65
2021/12/11 10:01:03;;;;;;;9.98;5.53;;;;;;;15.74;47.30;100129.56;4994021;28;20030;-65
2021/12/11 10:03:33;;;;;;;6.85;4.75;;;;;;;15.10;50.14;100114.97;4988519;28;20139;-64
2021/12/11 10:06:13;;;;;;;8.88;5.10;;;;;;;13.66;50.79;100122.59;4988058;28;20114;-64
2021/12/11 10:08:42;;;;;;;8.32;5.05;;;;;;;12.54;55.63;100131.69;4986114;28;20029;-65
2021/12/11 10:11:20;;;;;;;10.93;5.53;;;;;;;14.07;53.95;100129.66;4992622;28;20109;-64
2021/12/11 10:13:52;;;;;;;8.48;5.32;;;;;;;14.13;51.96;100124.06;4993651;28;20050;-64
2021/12/11 10:16:20;;;;;;;8.88;5.07;;;;;;;13.49;53.01;100129.63;4972251;28;20023;-64
2021/12/11 10:18:47;;;;;;;8.98;5.55;;;;;;;14.60;51.91;100137.94;4989281;28;20041;-64
2021/12/11 10:21:35;;;;;;;8.35;4.75;;;;;;;15.23;47.76;100132.16;4990959;28;20022;-64
2021/12/11 10:24:06;;;;;;;9.38;5.65;;;;;;;15.68;49.73;100140.56;4983689;28;20390;-65
2021/12/11 10:26:32;;;;;;;9.38;5.60;;;;;;;16.69;47.70;100142.31;4989955;28;20520;-64
2021/12/11 10:29:01;;;;;;;9.55;4.82;;;;;;;15.40;47.54;100148.28;4988901;28;20030;-65
2021/12/11 10:31:34;;;;;;;9.50;5.75;;;;;;;13.32;51.14;100154.38;4980515;28;20033;-64
2021/12/11 10:34:04;;;;;;;9.38;5.65;;;;;;;11.78;54.65;100162.09;4989482;28;20109;-64
2021/12/11 10:36:34;;;;;;;11.07;6.13;;;;;;;11.24;60.01;100158.63;4990269;28;20030;-64
2021/12/11 10:39:02;;;;;;;10.38;5.65;;;;;;;12.27;59.15;100156.75;4986111;28;20054;-64
2021/12/11 10:41:28;;;;;;;8.73;5.25;;;;;;;12.09;57.54;100160.09;4987326;28;20123;-64
2021/12/11 10:44:01;;;;;;;8.05;5.03;;;;;;;12.89;55.98;100160.53;4988759;28;20681;-66
2021/12/11 10:46:31;;;;;;;8.37;4.43;;;;;;;13.31;55.09;100165.97;4988174;28;20022;-65
2021/12/11 10:48:58;;;;;;;7.90;5.00;;;;;;;12.44;55.53;100174.78;4983101;28;20030;-64
2021/12/11 10:51:31;;;;;;;7.88;4.97;;;;;;;12.33;57.36;100187.66;4989653;28;20151;-64
2021/12/11 10:53:57;;;;;;;8.77;5.28;;;;;;;12.46;55.95;100181.81;4986497;28;20044;-65
2021/12/11 10:56:25;;;;;;;8.38;5.95;;;;;;;13.36;55.33;100187.16;4988020;28;20495;-65
2021/12/11 10:58:55;;;;;;;7.10;4.78;;;;;;;14.02;52.88;100189.66;4990371;28;20443;-65
2021/12/11 11:01:32;;;;;;;9.15;4.78;;;;;;;13.71;52.06;100190.09;4989316;28;20065;-65
2021/12/11 11:04:04;;;;;;;7.40;4.45;;;;;;;13.08;53.06;100192.72;4979647;28;20446;-65
2021/12/11 11:06:30;;;;;;;6.60;4.00;;;;;;;12.13;55.18;100199.03;4988277;28;20486;-65
2021/12/11 11:08:55;;;;;;;6.88;4.13;;;;;;;11.85;56.97;100199.16;4985529;28;20026;-65
2021/12/11 11:11:24;;;;;;;9.68;4.80;;;;;;;12.12;58.10;100207.97;4987724;28;20034;-65
2021/12/11 11:13:50;;;;;;;9.13;4.80;;;;;;;12.25;55.65;100209.28;4988779;28;20054;-65
2021/12/11 11:16:20;;;;;;;7.05;4.35;;;;;;;11.76;54.90;100203.94;4989261;28;20026;-65
2021/12/11 11:18:47;;;;;;;6.80;4.32;;;;;;;11.63;55.23;100218.56;4988870;28;20414;-65
2021/12/11 11:21:20;;;;;;;6.15;3.60;;;;;;;11.50;54.62;100211.88;4985884;28;20026;-65
2021/12/11 11:23:46;;;;;;;;;;;;;;;11.37;56.27;100218.53;4987204;28;20034;-65
2021/12/11 11:26:20;;;;;;;8.73;5.25;;;;;;;11.56;56.40;100214.38;4988607;28;19937;-65
2021/12/11 11:28:46;;;;;;;9.57;4.55;;;;;;;12.55;55.49;100216.13;4985918;28;20045;-65
2021/12/11 11:31:22;;;;;;;6.47;3.90;;;;;;;13.31;51.97;100221.22;4988390;28;20030;-65
2021/12/11 11:33:48;;;;;;;7.82;4.07;;;;;;;13.80;50.22;100220.94;4983904;28;20034;-65
2021/12/11 11:36:18;;;;;;;8.68;5.03;;;;;;;13.69;49.59;100231.22;4989369;28;20034;-65
2021/12/11 11:38:48;;;;;;;7.38;4.13;;;;;;;14.03;49.18;100224.38;4986292;28;20046;-65
2021/12/11 11:41:22;;;;;;;7.55;3.80;;;;;;;14.47;51.09;100222.41;4985151;28;20062;-63
2021/12/11 11:43:48;;;;;;;7.75;4.05;;;;;;;13.77;48.37;100227.25;4988385;28;20069;-65
2021/12/11 11:46:15;;;;;;;6.95;4.32;;;;;;;13.39;49.79;100235.13;4985502;28;20378;-65
2021/12/11 11:48:44;;;;;;;7.43;3.85;;;;;;;12.38;50.73;100237.25;4976233;28;20438;-65
2021/12/11 11:51:35;;;;;;;7.70;4.28;;;;;;;11.15;54.38;100238.81;4984877;28;20034;-65
2021/12/11 11:54:02;;;;;;;6.55;4.38;;;;;;;10.55;57.53;100239.72;4985848;28;20065;-63
2021/12/11 11:56:31;;;;;;;7.70;4.40;;;;;;;10.32;59.83;100251.91;4985632;28;20031;-65
2021/12/11 11:58:56;;;;;;;6.68;4.10;;;;;;;10.06;61.45;100244.63;4986819;28;20041;-65
2021/12/11 12:01:26;;;;;;;8.68;4.90;;;;;;;9.60;63.18;100254.72;4988278;28;20026;-65